sensor_id;sensor_type;location;lat;lon;timestamp;P1;durP1;ratioP1;P2;durP2;ratioP2
69381;SDS011;56560;50.692;12.844;2022-07-10T00:00:34;8.35;;;2.65;;
69381;SDS011;56560;50.692;12.844;2022-07-10T00:03:01;8.20;;;2.70;;
69381;SDS011;56560;50.692;12.844;2022-07-10T00:05:27;8.20;;;3.10;;
69381;SDS011;56560;50.692;12.844;2022-07-10T00:07:53;12.02;;;3.38;;
69381;SDS011;56560;50.692;12.844;2022-07-10T00:10:20;10.80;;;2.50;;
69381;SDS011;56560;50.692;12.844;2022-07-10T00:12:46;8.88;;;2.40;;
69381;SDS011;56560;50.692;12.844;2022-07-10T00:15:13;10.13;;;2.30;;
69381;SDS011;56560;50.692;12.844;2022-07-10T00:17:40;7.32;;;2.55;;
69381;SDS011;56560;50.692;12.844;2022-07-10T00:20:06;5.65;;;2.20;;
69381;SDS011;56560;50.692;12.844;2022-07-10T00:22:33;12.15;;;2.65;;
69381;SDS011;56560;50.692;12.844;2022-07-10T00:25:03;6.93;;;2.10;;
69381;SDS011;56560;50.692;12.844;2022-07-10T00:27:30;6.30;;;2.40;;
69381;SDS011;56560;50.692;12.844;2022-07-10T00:29:55;8.80;;;2.35;;
69381;SDS011;56560;50.692;12.844;2022-07-10T00:32:21;7.63;;;2.30;;
69381;SDS011;56560;50.692;12.844;2022-07-10T00:34:47;8.05;;;2.20;;
69381;SDS011;56560;50.692;12.844;2022-07-10T00:37:13;7.13;;;2.13;;
69381;SDS011;56560;50.692;12.844;2022-07-10T00:39:39;6.50;;;2.10;;
69381;SDS011;56560;50.692;12.844;2022-07-10T00:42:05;11.05;;;2.28;;
69381;SDS011;56560;50.692;12.844;2022-07-10T00:44:35;6.55;;;1.80;;
69381;SDS011;56560;50.692;12.844;2022-07-10T00:47:02;7.15;;;2.10;;
69381;SDS011;56560;50.692;12.844;2022-07-10T00:49:29;7.97;;;2.10;;
69381;SDS011;56560;50.692;12.844;2022-07-10T00:51:55;5.75;;;1.85;;
69381;SDS011;56560;50.692;12.844;2022-07-10T00:54:22;6.15;;;2.17;;
69381;SDS011;56560;50.692;12.844;2022-07-10T00:56:48;6.20;;;1.92;;
69381;SDS011;56560;50.692;12.844;2022-07-10T00:59:14;6.27;;;1.93;;
69381;SDS011;56560;50.692;12.844;2022-07-10T01:01:40;6.00;;;2.03;;
69381;SDS011;56560;50.692;12.844;2022-07-10T01:04:06;5.53;;;2.00;;
69381;SDS011;56560;50.692;12.844;2022-07-10T01:06:31;9.02;;;2.08;;
69381;SDS011;56560;50.692;12.844;2022-07-10T01:08:57;8.03;;;2.10;;
69381;SDS011;56560;50.692;12.844;2022-07-10T01:11:23;7.13;;;1.90;;
69381;SDS011;56560;50.692;12.844;2022-07-10T01:13:49;5.97;;;1.83;;
69381;SDS011;56560;50.692;12.844;2022-07-10T01:16:15;7.40;;;2.10;;
69381;SDS011;56560;50.692;12.844;2022-07-10T01:18:42;8.90;;;1.90;;
69381;SDS011;56560;50.692;12.844;2022-07-10T01:23:56;6.28;;;2.20;;
69381;SDS011;56560;50.692;12.844;2022-07-10T01:26:22;7.90;;;2.15;;
69381;SDS011;56560;50.692;12.844;2022-07-10T01:28:52;7.03;;;1.60;;
69381;SDS011;56560;50.692;12.844;2022-07-10T01:31:27;7.07;;;2.20;;
69381;SDS011;56560;50.692;12.844;2022-07-10T01:33:54;8.75;;;2.20;;
69381;SDS011;56560;50.692;12.844;2022-07-10T01:36:20;7.70;;;1.92;;
69381;SDS011;56560;50.692;12.844;2022-07-10T01:38:46;5.60;;;1.80;;
69381;SDS011;56560;50.692;12.844;2022-07-10T01:41:12;6.10;;;1.85;;
69381;SDS011;56560;50.692;12.844;2022-07-10T01:43:38;8.60;;;1.90;;
69381;SDS011;56560;50.692;12.844;2022-07-10T01:46:07;9.52;;;2.08;;
69381;SDS011;56560;50.692;12.844;2022-07-10T01:48:36;6.22;;;2.05;;
69381;SDS011;56560;50.692;12.844;2022-07-10T01:51:02;7.78;;;1.90;;
69381;SDS011;56560;50.692;12.844;2022-07-10T01:53:28;8.40;;;2.20;;
69381;SDS011;56560;50.692;12.844;2022-07-10T01:55:54;7.53;;;2.13;;
69381;SDS011;56560;50.692;12.844;2022-07-10T01:58:20;6.00;;;1.80;;
69381;SDS011;56560;50.692;12.844;2022-07-10T02:00:46;7.20;;;2.00;;
69381;SDS011;56560;50.692;12.844;2022-07-10T02:03:12;8.00;;;1.90;;
69381;SDS011;56560;50.692;12.844;2022-07-10T02:05:56;7.35;;;1.98;;
69381;SDS011;56560;50.692;12.844;2022-07-10T02:08:22;6.80;;;2.20;;
69381;SDS011;56560;50.692;12.844;2022-07-10T02:10:47;9.68;;;1.90;;
69381;SDS011;56560;50.692;12.844;2022-07-10T02:13:14;8.63;;;2.10;;
69381;SDS011;56560;50.692;12.844;2022-07-10T02:15:42;8.38;;;2.50;;
69381;SDS011;56560;50.692;12.844;2022-07-10T02:18:08;6.82;;;2.05;;
69381;SDS011;56560;50.692;12.844;2022-07-10T02:20:34;7.80;;;2.10;;
69381;SDS011;56560;50.692;12.844;2022-07-10T02:23:01;10.35;;;3.00;;
69381;SDS011;56560;50.692;12.844;2022-07-10T02:25:26;6.70;;;1.87;;
69381;SDS011;56560;50.692;12.844;2022-07-10T02:27:52;7.07;;;2.20;;
69381;SDS011;56560;50.692;12.844;2022-07-10T02:30:18;7.33;;;2.23;;
69381;SDS011;56560;50.692;12.844;2022-07-10T02:32:44;11.43;;;2.35;;
69381;SDS011;56560;50.692;12.844;2022-07-10T02:35:10;6.13;;;2.10;;
69381;SDS011;56560;50.692;12.844;2022-07-10T02:37:38;10.17;;;2.13;;
69381;SDS011;56560;50.692;12.844;2022-07-10T02:40:04;6.32;;;2.10;;
69381;SDS011;56560;50.692;12.844;2022-07-10T02:42:30;8.27;;;2.10;;
69381;SDS011;56560;50.692;12.844;2022-07-10T02:44:56;6.80;;;2.00;;
69381;SDS011;56560;50.692;12.844;2022-07-10T02:47:21;5.43;;;1.80;;
69381;SDS011;56560;50.692;12.844;2022-07-10T02:49:47;8.82;;;2.15;;
69381;SDS011;56560;50.692;12.844;2022-07-10T02:52:13;5.70;;;2.20;;
69381;SDS011;56560;50.692;12.844;2022-07-10T02:54:38;8.93;;;2.30;;
69381;SDS011;56560;50.692;12.844;2022-07-10T02:57:04;8.50;;;2.10;;
69381;SDS011;56560;50.692;12.844;2022-07-10T02:59:30;5.80;;;2.00;;
69381;SDS011;56560;50.692;12.844;2022-07-10T03:01:56;8.57;;;2.20;;
69381;SDS011;56560;50.692;12.844;2022-07-10T03:04:21;6.50;;;2.03;;
69381;SDS011;56560;50.692;12.844;2022-07-10T03:06:47;6.63;;;2.20;;
69381;SDS011;56560;50.692;12.844;2022-07-10T03:09:13;5.22;;;2.20;;
69381;SDS011;56560;50.692;12.844;2022-07-10T03:11:38;7.23;;;2.07;;
69381;SDS011;56560;50.692;12.844;2022-07-10T03:14:04;8.13;;;2.15;;
69381;SDS011;56560;50.692;12.844;2022-07-10T03:16:31;8.03;;;2.00;;
69381;SDS011;56560;50.692;12.844;2022-07-10T03:18:57;7.05;;;2.00;;
69381;SDS011;56560;50.692;12.844;2022-07-10T03:21:22;8.23;;;2.10;;
69381;SDS011;56560;50.692;12.844;2022-07-10T03:23:48;7.07;;;1.90;;
69381;SDS011;56560;50.692;12.844;2022-07-10T03:26:15;6.50;;;2.10;;
69381;SDS011;56560;50.692;12.844;2022-07-10T03:28:40;7.03;;;1.95;;
69381;SDS011;56560;50.692;12.844;2022-07-10T03:31:06;8.03;;;2.20;;
69381;SDS011;56560;50.692;12.844;2022-07-10T03:33:32;7.00;;;2.10;;
69381;SDS011;56560;50.692;12.844;2022-07-10T03:35:58;7.00;;;2.00;;
69381;SDS011;56560;50.692;12.844;2022-07-10T03:38:26;5.07;;;1.75;;
69381;SDS011;56560;50.692;12.844;2022-07-10T03:40:52;9.10;;;2.00;;
69381;SDS011;56560;50.692;12.844;2022-07-10T03:43:18;7.80;;;1.90;;
69381;SDS011;56560;50.692;12.844;2022-07-10T03:45:43;10.18;;;2.10;;
69381;SDS011;56560;50.692;12.844;2022-07-10T03:48:09;5.53;;;1.90;;
69381;SDS011;56560;50.692;12.844;2022-07-10T03:50:35;9.85;;;2.05;;
69381;SDS011;56560;50.692;12.844;2022-07-10T03:53:00;7.27;;;1.93;;
69381;SDS011;56560;50.692;12.844;2022-07-10T03:55:26;8.60;;;2.00;;
69381;SDS011;56560;50.692;12.844;2022-07-10T03:57:52;10.83;;;2.00;;
69381;SDS011;56560;50.692;12.844;2022-07-10T04:00:24;8.30;;;2.03;;
69381;SDS011;56560;50.692;12.844;2022-07-10T04:02:58;6.93;;;1.85;;
69381;SDS011;56560;50.692;12.844;2022-07-10T04:05:26;7.03;;;1.90;;
69381;SDS011;56560;50.692;12.844;2022-07-10T04:07:52;8.02;;;2.00;;
69381;SDS011;56560;50.692;12.844;2022-07-10T04:10:18;5.37;;;1.90;;
69381;SDS011;56560;50.692;12.844;2022-07-10T04:12:44;8.13;;;1.90;;
69381;SDS011;56560;50.692;12.844;2022-07-10T04:15:10;8.15;;;2.10;;
69381;SDS011;56560;50.692;12.844;2022-07-10T04:17:36;7.20;;;1.97;;
69381;SDS011;56560;50.692;12.844;2022-07-10T04:20:02;5.40;;;2.03;;
69381;SDS011;56560;50.692;12.844;2022-07-10T04:22:28;8.30;;;2.00;;
69381;SDS011;56560;50.692;12.844;2022-07-10T04:24:54;8.35;;;2.08;;
69381;SDS011;56560;50.692;12.844;2022-07-10T04:27:20;7.43;;;1.85;;
69381;SDS011;56560;50.692;12.844;2022-07-10T04:29:46;8.57;;;1.90;;
69381;SDS011;56560;50.692;12.844;2022-07-10T04:32:12;8.45;;;1.88;;
69381;SDS011;56560;50.692;12.844;2022-07-10T04:34:39;5.18;;;1.80;;
69381;SDS011;56560;50.692;12.844;2022-07-10T04:37:05;4.87;;;1.70;;
69381;SDS011;56560;50.692;12.844;2022-07-10T04:39:32;7.65;;;1.80;;
69381;SDS011;56560;50.692;12.844;2022-07-10T04:41:59;4.85;;;1.90;;
69381;SDS011;56560;50.692;12.844;2022-07-10T04:44:25;7.07;;;1.90;;
69381;SDS011;56560;50.692;12.844;2022-07-10T04:46:51;5.95;;;1.73;;
69381;SDS011;56560;50.692;12.844;2022-07-10T04:49:16;6.30;;;1.70;;
69381;SDS011;56560;50.692;12.844;2022-07-10T04:51:42;5.60;;;1.60;;
69381;SDS011;56560;50.692;12.844;2022-07-10T04:54:08;6.70;;;1.80;;
69381;SDS011;56560;50.692;12.844;2022-07-10T04:56:33;6.05;;;1.80;;
69381;SDS011;56560;50.692;12.844;2022-07-10T04:58:59;8.73;;;2.10;;
69381;SDS011;56560;50.692;12.844;2022-07-10T05:01:25;7.45;;;1.70;;
69381;SDS011;56560;50.692;12.844;2022-07-10T05:03:51;6.47;;;1.70;;
69381;SDS011;56560;50.692;12.844;2022-07-10T05:06:16;7.50;;;1.85;;
69381;SDS011;56560;50.692;12.844;2022-07-10T05:08:42;9.30;;;1.80;;
69381;SDS011;56560;50.692;12.844;2022-07-10T05:11:08;6.93;;;1.60;;
69381;SDS011;56560;50.692;12.844;2022-07-10T05:13:34;9.00;;;1.70;;
69381;SDS011;56560;50.692;12.844;2022-07-10T05:16:00;3.75;;;1.58;;
69381;SDS011;56560;50.692;12.844;2022-07-10T05:18:26;6.27;;;1.60;;
69381;SDS011;56560;50.692;12.844;2022-07-10T05:20:51;6.47;;;1.70;;
69381;SDS011;56560;50.692;12.844;2022-07-10T05:23:17;8.30;;;1.80;;
69381;SDS011;56560;50.692;12.844;2022-07-10T05:25:42;7.15;;;1.80;;
69381;SDS011;56560;50.692;12.844;2022-07-10T05:28:08;6.87;;;1.60;;
69381;SDS011;56560;50.692;12.844;2022-07-10T05:30:34;6.55;;;1.55;;
69381;SDS011;56560;50.692;12.844;2022-07-10T05:32:59;6.88;;;1.80;;
69381;SDS011;56560;50.692;12.844;2022-07-10T05:35:26;6.93;;;1.70;;
69381;SDS011;56560;50.692;12.844;2022-07-10T05:37:52;7.13;;;1.63;;
69381;SDS011;56560;50.692;12.844;2022-07-10T05:40:18;8.63;;;2.00;;
69381;SDS011;56560;50.692;12.844;2022-07-10T05:42:43;7.47;;;2.00;;
69381;SDS011;56560;50.692;12.844;2022-07-10T05:45:10;7.33;;;1.63;;
69381;SDS011;56560;50.692;12.844;2022-07-10T05:47:36;6.63;;;1.70;;
69381;SDS011;56560;50.692;12.844;2022-07-10T05:50:02;5.45;;;1.40;;
69381;SDS011;56560;50.692;12.844;2022-07-10T05:52:28;5.57;;;1.60;;
69381;SDS011;56560;50.692;12.844;2022-07-10T05:54:55;7.70;;;1.55;;
69381;SDS011;56560;50.692;12.844;2022-07-10T05:57:21;6.57;;;1.80;;
69381;SDS011;56560;50.692;12.844;2022-07-10T05:59:47;4.83;;;1.50;;
69381;SDS011;56560;50.692;12.844;2022-07-10T06:02:13;6.88;;;1.50;;
69381;SDS011;56560;50.692;12.844;2022-07-10T06:04:38;9.60;;;1.70;;
69381;SDS011;56560;50.692;12.844;2022-07-10T06:07:04;5.90;;;1.70;;
69381;SDS011;56560;50.692;12.844;2022-07-10T06:09:30;5.07;;;1.60;;
69381;SDS011;56560;50.692;12.844;2022-07-10T06:11:56;5.78;;;1.80;;
69381;SDS011;56560;50.692;12.844;2022-07-10T06:14:21;4.10;;;1.47;;
69381;SDS011;56560;50.692;12.844;2022-07-10T06:16:47;7.10;;;1.85;;
69381;SDS011;56560;50.692;12.844;2022-07-10T06:19:13;8.67;;;2.00;;
69381;SDS011;56560;50.692;12.844;2022-07-10T06:21:39;7.35;;;1.70;;
69381;SDS011;56560;50.692;12.844;2022-07-10T06:24:04;3.73;;;1.60;;
69381;SDS011;56560;50.692;12.844;2022-07-10T06:26:30;5.50;;;1.63;;
69381;SDS011;56560;50.692;12.844;2022-07-10T06:28:56;8.75;;;1.77;;
69381;SDS011;56560;50.692;12.844;2022-07-10T06:31:21;4.55;;;1.33;;
69381;SDS011;56560;50.692;12.844;2022-07-10T06:33:47;6.93;;;1.93;;
69381;SDS011;56560;50.692;12.844;2022-07-10T06:36:13;7.85;;;2.17;;
69381;SDS011;56560;50.692;12.844;2022-07-10T06:38:38;7.13;;;2.20;;
69381;SDS011;56560;50.692;12.844;2022-07-10T06:41:06;9.80;;;2.38;;
69381;SDS011;56560;50.692;12.844;2022-07-10T06:43:32;8.45;;;2.33;;
69381;SDS011;56560;50.692;12.844;2022-07-10T06:45:57;6.60;;;2.37;;
69381;SDS011;56560;50.692;12.844;2022-07-10T06:48:23;6.28;;;2.10;;
69381;SDS011;56560;50.692;12.844;2022-07-10T06:50:51;8.13;;;2.33;;
69381;SDS011;56560;50.692;12.844;2022-07-10T06:53:17;5.53;;;1.97;;
69381;SDS011;56560;50.692;12.844;2022-07-10T06:55:43;6.60;;;2.15;;
69381;SDS011;56560;50.692;12.844;2022-07-10T06:58:09;9.40;;;2.20;;
69381;SDS011;56560;50.692;12.844;2022-07-10T07:00:35;7.57;;;2.20;;
69381;SDS011;56560;50.692;12.844;2022-07-10T07:03:01;6.07;;;2.60;;
69381;SDS011;56560;50.692;12.844;2022-07-10T07:05:26;6.75;;;2.50;;
69381;SDS011;56560;50.692;12.844;2022-07-10T07:07:52;5.83;;;2.60;;
69381;SDS011;56560;50.692;12.844;2022-07-10T07:10:17;6.28;;;2.58;;
69381;SDS011;56560;50.692;12.844;2022-07-10T07:12:43;5.03;;;1.90;;
69381;SDS011;56560;50.692;12.844;2022-07-10T07:15:09;7.60;;;2.37;;
69381;SDS011;56560;50.692;12.844;2022-07-10T07:17:41;7.88;;;2.50;;
69381;SDS011;56560;50.692;12.844;2022-07-10T07:20:32;6.57;;;1.90;;
69381;SDS011;56560;50.692;12.844;2022-07-10T07:23:16;6.30;;;1.83;;
69381;SDS011;56560;50.692;12.844;2022-07-10T07:25:42;4.28;;;1.52;;
69381;SDS011;56560;50.692;12.844;2022-07-10T07:28:11;5.25;;;1.80;;
69381;SDS011;56560;50.692;12.844;2022-07-10T07:30:40;5.53;;;1.80;;
69381;SDS011;56560;50.692;12.844;2022-07-10T07:33:06;4.35;;;1.60;;
69381;SDS011;56560;50.692;12.844;2022-07-10T07:35:32;6.70;;;1.90;;
69381;SDS011;56560;50.692;12.844;2022-07-10T07:37:57;6.43;;;2.00;;
69381;SDS011;56560;50.692;12.844;2022-07-10T07:40:23;6.25;;;1.80;;
69381;SDS011;56560;50.692;12.844;2022-07-10T07:42:49;6.68;;;2.00;;
69381;SDS011;56560;50.692;12.844;2022-07-10T07:45:16;6.17;;;2.50;;
69381;SDS011;56560;50.692;12.844;2022-07-10T07:47:49;6.47;;;2.55;;
69381;SDS011;56560;50.692;12.844;2022-07-10T07:50:21;7.78;;;2.78;;
69381;SDS011;56560;50.692;12.844;2022-07-10T07:52:51;7.07;;;2.22;;
69381;SDS011;56560;50.692;12.844;2022-07-10T07:55:18;5.22;;;2.03;;
69381;SDS011;56560;50.692;12.844;2022-07-10T07:57:45;5.35;;;2.30;;
69381;SDS011;56560;50.692;12.844;2022-07-10T08:00:12;4.93;;;2.10;;
69381;SDS011;56560;50.692;12.844;2022-07-10T08:02:42;5.82;;;2.10;;
69381;SDS011;56560;50.692;12.844;2022-07-10T08:05:08;4.20;;;1.80;;
69381;SDS011;56560;50.692;12.844;2022-07-10T08:07:35;7.93;;;2.13;;
69381;SDS011;56560;50.692;12.844;2022-07-10T08:10:03;8.55;;;2.20;;
69381;SDS011;56560;50.692;12.844;2022-07-10T08:12:29;7.38;;;2.10;;
69381;SDS011;56560;50.692;12.844;2022-07-10T08:14:55;5.93;;;2.10;;
69381;SDS011;56560;50.692;12.844;2022-07-10T08:17:23;6.72;;;1.98;;
69381;SDS011;56560;50.692;12.844;2022-07-10T08:19:49;5.38;;;2.00;;
69381;SDS011;56560;50.692;12.844;2022-07-10T08:22:14;8.70;;;2.60;;
69381;SDS011;56560;50.692;12.844;2022-07-10T08:24:41;10.25;;;2.90;;
69381;SDS011;56560;50.692;12.844;2022-07-10T08:27:06;9.50;;;3.07;;
69381;SDS011;56560;50.692;12.844;2022-07-10T08:29:32;8.60;;;2.90;;
69381;SDS011;56560;50.692;12.844;2022-07-10T08:31:58;4.78;;;2.00;;
69381;SDS011;56560;50.692;12.844;2022-07-10T08:34:24;7.78;;;2.45;;
69381;SDS011;56560;50.692;12.844;2022-07-10T08:36:50;7.97;;;2.60;;
69381;SDS011;56560;50.692;12.844;2022-07-10T08:39:16;9.33;;;3.50;;
69381;SDS011;56560;50.692;12.844;2022-07-10T08:41:45;9.65;;;3.13;;
69381;SDS011;56560;50.692;12.844;2022-07-10T08:44:15;8.15;;;2.80;;
69381;SDS011;56560;50.692;12.844;2022-07-10T08:46:44;10.68;;;3.20;;
69381;SDS011;56560;50.692;12.844;2022-07-10T08:49:10;10.57;;;2.90;;
69381;SDS011;56560;50.692;12.844;2022-07-10T08:54:27;8.75;;;2.53;;
69381;SDS011;56560;50.692;12.844;2022-07-10T08:56:54;6.20;;;2.15;;
69381;SDS011;56560;50.692;12.844;2022-07-10T08:59:30;6.47;;;2.22;;
69381;SDS011;56560;50.692;12.844;2022-07-10T09:01:56;5.32;;;2.30;;
69381;SDS011;56560;50.692;12.844;2022-07-10T09:04:23;6.68;;;1.98;;
69381;SDS011;56560;50.692;12.844;2022-07-10T09:06:51;6.85;;;1.98;;
69381;SDS011;56560;50.692;12.844;2022-07-10T09:09:17;3.35;;;1.40;;
69381;SDS011;56560;50.692;12.844;2022-07-10T09:11:43;4.88;;;1.70;;
69381;SDS011;56560;50.692;12.844;2022-07-10T09:14:10;4.63;;;1.60;;
69381;SDS011;56560;50.692;12.844;2022-07-10T09:16:46;5.82;;;1.33;;
69381;SDS011;56560;50.692;12.844;2022-07-10T09:21:52;4.55;;;1.20;;
69381;SDS011;56560;50.692;12.844;2022-07-10T09:24:39;4.97;;;1.25;;
69381;SDS011;56560;50.692;12.844;2022-07-10T09:27:09;3.88;;;1.40;;
69381;SDS011;56560;50.692;12.844;2022-07-10T09:32:12;3.90;;;1.00;;
69381;SDS011;56560;50.692;12.844;2022-07-10T09:42:30;2.47;;;1.08;;
69381;SDS011;56560;50.692;12.844;2022-07-10T09:45:18;3.25;;;1.00;;
69381;SDS011;56560;50.692;12.844;2022-07-10T09:47:58;4.57;;;1.40;;
69381;SDS011;56560;50.692;12.844;2022-07-10T09:52:58;3.85;;;1.20;;
69381;SDS011;56560;50.692;12.844;2022-07-10T09:55:27;3.40;;;1.30;;
69381;SDS011;56560;50.692;12.844;2022-07-10T10:00:24;4.75;;;1.27;;
69381;SDS011;56560;50.692;12.844;2022-07-10T10:02:58;3.72;;;1.40;;
69381;SDS011;56560;50.692;12.844;2022-07-10T10:08:25;2.78;;;1.10;;
69381;SDS011;56560;50.692;12.844;2022-07-10T10:10:54;5.80;;;1.45;;
69381;SDS011;56560;50.692;12.844;2022-07-10T10:13:22;3.88;;;1.40;;
69381;SDS011;56560;50.692;12.844;2022-07-10T10:15:49;3.95;;;1.38;;
69381;SDS011;56560;50.692;12.844;2022-07-10T10:18:17;5.03;;;1.80;;
69381;SDS011;56560;50.692;12.844;2022-07-10T10:20:47;6.50;;;2.08;;
69381;SDS011;56560;50.692;12.844;2022-07-10T10:23:15;4.43;;;1.50;;
69381;SDS011;56560;50.692;12.844;2022-07-10T10:25:48;6.32;;;1.63;;
69381;SDS011;56560;50.692;12.844;2022-07-10T10:28:21;2.90;;;1.38;;
69381;SDS011;56560;50.692;12.844;2022-07-10T10:30:52;3.17;;;1.50;;
69381;SDS011;56560;50.692;12.844;2022-07-10T10:35:58;6.00;;;2.08;;
69381;SDS011;56560;50.692;12.844;2022-07-10T10:38:25;4.40;;;1.80;;
69381;SDS011;56560;50.692;12.844;2022-07-10T10:41:25;4.35;;;1.80;;
69381;SDS011;56560;50.692;12.844;2022-07-10T10:49:18;12.80;;;3.63;;
69381;SDS011;56560;50.692;12.844;2022-07-10T11:00:01;5.43;;;1.90;;
69381;SDS011;56560;50.692;12.844;2022-07-10T11:02:33;6.40;;;1.73;;
69381;SDS011;56560;50.692;12.844;2022-07-10T11:10:28;5.07;;;1.70;;
69381;SDS011;56560;50.692;12.844;2022-07-10T11:13:01;4.95;;;1.75;;
69381;SDS011;56560;50.692;12.844;2022-07-10T11:15:27;6.70;;;1.85;;
69381;SDS011;56560;50.692;12.844;2022-07-10T11:18:08;6.82;;;1.73;;
69381;SDS011;56560;50.692;12.844;2022-07-10T11:20:41;6.30;;;2.10;;
69381;SDS011;56560;50.692;12.844;2022-07-10T11:26:29;5.97;;;1.80;;
69381;SDS011;56560;50.692;12.844;2022-07-10T11:29:05;7.00;;;1.80;;
69381;SDS011;56560;50.692;12.844;2022-07-10T11:31:31;5.18;;;1.67;;
69381;SDS011;56560;50.692;12.844;2022-07-10T11:34:03;6.40;;;1.50;;
69381;SDS011;56560;50.692;12.844;2022-07-10T11:36:29;5.78;;;1.65;;
69381;SDS011;56560;50.692;12.844;2022-07-10T11:39:05;6.03;;;1.90;;
69381;SDS011;56560;50.692;12.844;2022-07-10T11:41:32;6.22;;;1.80;;
69381;SDS011;56560;50.692;12.844;2022-07-10T11:43:59;5.40;;;1.80;;
69381;SDS011;56560;50.692;12.844;2022-07-10T11:46:27;6.72;;;1.60;;
69381;SDS011;56560;50.692;12.844;2022-07-10T11:48:54;3.80;;;1.60;;
69381;SDS011;56560;50.692;12.844;2022-07-10T11:53:59;4.68;;;1.80;;
69381;SDS011;56560;50.692;12.844;2022-07-10T11:56:30;4.80;;;1.75;;
69381;SDS011;56560;50.692;12.844;2022-07-10T11:58:59;6.65;;;2.00;;
69381;SDS011;56560;50.692;12.844;2022-07-10T12:01:27;6.20;;;1.70;;
69381;SDS011;56560;50.692;12.844;2022-07-10T12:03:54;5.47;;;1.73;;
69381;SDS011;56560;50.692;12.844;2022-07-10T12:06:21;3.63;;;1.38;;
69381;SDS011;56560;50.692;12.844;2022-07-10T12:08:48;6.07;;;2.03;;
69381;SDS011;56560;50.692;12.844;2022-07-10T12:11:15;4.72;;;1.50;;
69381;SDS011;56560;50.692;12.844;2022-07-10T12:13:42;6.70;;;1.70;;
69381;SDS011;56560;50.692;12.844;2022-07-10T12:16:08;6.05;;;1.80;;
69381;SDS011;56560;50.692;12.844;2022-07-10T12:18:34;6.85;;;1.80;;
69381;SDS011;56560;50.692;12.844;2022-07-10T12:21:00;5.47;;;1.60;;
69381;SDS011;56560;50.692;12.844;2022-07-10T12:23:26;6.43;;;1.70;;
69381;SDS011;56560;50.692;12.844;2022-07-10T12:25:53;4.88;;;1.70;;
69381;SDS011;56560;50.692;12.844;2022-07-10T12:28:21;4.72;;;1.77;;
69381;SDS011;56560;50.692;12.844;2022-07-10T12:30:48;6.35;;;1.80;;
69381;SDS011;56560;50.692;12.844;2022-07-10T12:33:15;6.17;;;2.00;;
69381;SDS011;56560;50.692;12.844;2022-07-10T12:40:48;5.93;;;1.60;;
69381;SDS011;56560;50.692;12.844;2022-07-10T12:43:23;6.40;;;2.13;;
69381;SDS011;56560;50.692;12.844;2022-07-10T12:48:36;5.13;;;1.80;;
69381;SDS011;56560;50.692;12.844;2022-07-10T12:51:19;4.97;;;1.60;;
69381;SDS011;56560;50.692;12.844;2022-07-10T12:53:47;6.40;;;1.80;;
69381;SDS011;56560;50.692;12.844;2022-07-10T12:59:11;5.43;;;1.60;;
69381;SDS011;56560;50.692;12.844;2022-07-10T13:01:44;7.18;;;1.67;;
69381;SDS011;56560;50.692;12.844;2022-07-10T13:04:11;7.43;;;1.73;;
69381;SDS011;56560;50.692;12.844;2022-07-10T13:06:37;5.37;;;1.73;;
69381;SDS011;56560;50.692;12.844;2022-07-10T13:09:24;8.13;;;1.70;;
69381;SDS011;56560;50.692;12.844;2022-07-10T13:11:51;6.82;;;1.80;;
69381;SDS011;56560;50.692;12.844;2022-07-10T13:14:18;5.55;;;1.85;;
69381;SDS011;56560;50.692;12.844;2022-07-10T13:16:44;7.10;;;1.60;;
69381;SDS011;56560;50.692;12.844;2022-07-10T13:19:10;3.97;;;1.70;;
69381;SDS011;56560;50.692;12.844;2022-07-10T13:21:36;6.18;;;1.67;;
69381;SDS011;56560;50.692;12.844;2022-07-10T13:24:02;5.40;;;1.70;;
69381;SDS011;56560;50.692;12.844;2022-07-10T13:26:28;5.70;;;1.60;;
69381;SDS011;56560;50.692;12.844;2022-07-10T13:28:55;7.85;;;1.85;;
69381;SDS011;56560;50.692;12.844;2022-07-10T13:31:21;7.78;;;1.90;;
69381;SDS011;56560;50.692;12.844;2022-07-10T13:33:46;7.97;;;1.87;;
69381;SDS011;56560;50.692;12.844;2022-07-10T13:36:12;5.85;;;1.98;;
69381;SDS011;56560;50.692;12.844;2022-07-10T13:38:38;8.57;;;1.90;;
69381;SDS011;56560;50.692;12.844;2022-07-10T13:41:04;6.33;;;1.60;;
69381;SDS011;56560;50.692;12.844;2022-07-10T13:43:30;4.68;;;1.80;;
69381;SDS011;56560;50.692;12.844;2022-07-10T13:45:56;5.13;;;1.90;;
69381;SDS011;56560;50.692;12.844;2022-07-10T13:48:23;5.53;;;1.83;;
69381;SDS011;56560;50.692;12.844;2022-07-10T13:50:49;8.18;;;2.03;;
69381;SDS011;56560;50.692;12.844;2022-07-10T13:53:16;7.17;;;2.10;;
69381;SDS011;56560;50.692;12.844;2022-07-10T13:55:42;5.80;;;1.80;;
69381;SDS011;56560;50.692;12.844;2022-07-10T13:58:11;7.28;;;1.70;;
69381;SDS011;56560;50.692;12.844;2022-07-10T14:00:37;5.25;;;1.80;;
69381;SDS011;56560;50.692;12.844;2022-07-10T14:03:03;5.15;;;1.70;;
69381;SDS011;56560;50.692;12.844;2022-07-10T14:05:30;5.27;;;1.50;;
69381;SDS011;56560;50.692;12.844;2022-07-10T14:07:57;5.05;;;1.60;;
69381;SDS011;56560;50.692;12.844;2022-07-10T14:10:23;5.25;;;1.80;;
69381;SDS011;56560;50.692;12.844;2022-07-10T14:12:49;5.63;;;1.70;;
69381;SDS011;56560;50.692;12.844;2022-07-10T14:15:17;7.30;;;1.90;;
69381;SDS011;56560;50.692;12.844;2022-07-10T14:17:43;5.78;;;1.85;;
69381;SDS011;56560;50.692;12.844;2022-07-10T14:20:09;6.60;;;2.05;;
69381;SDS011;56560;50.692;12.844;2022-07-10T14:22:36;4.80;;;1.70;;
69381;SDS011;56560;50.692;12.844;2022-07-10T14:25:02;5.05;;;1.67;;
69381;SDS011;56560;50.692;12.844;2022-07-10T14:27:33;5.15;;;1.70;;
69381;SDS011;56560;50.692;12.844;2022-07-10T14:29:59;5.85;;;1.80;;
69381;SDS011;56560;50.692;12.844;2022-07-10T14:32:25;5.73;;;1.70;;
69381;SDS011;56560;50.692;12.844;2022-07-10T14:34:51;5.82;;;1.73;;
69381;SDS011;56560;50.692;12.844;2022-07-10T14:37:16;5.30;;;1.93;;
69381;SDS011;56560;50.692;12.844;2022-07-10T14:39:42;5.97;;;1.80;;
69381;SDS011;56560;50.692;12.844;2022-07-10T14:42:08;5.37;;;1.83;;
69381;SDS011;56560;50.692;12.844;2022-07-10T14:44:37;6.00;;;2.08;;
69381;SDS011;56560;50.692;12.844;2022-07-10T14:47:03;9.30;;;1.90;;
69381;SDS011;56560;50.692;12.844;2022-07-10T14:49:29;5.90;;;2.20;;
69381;SDS011;56560;50.692;12.844;2022-07-10T14:51:54;6.03;;;1.83;;
69381;SDS011;56560;50.692;12.844;2022-07-10T14:54:20;5.50;;;1.70;;
69381;SDS011;56560;50.692;12.844;2022-07-10T14:56:46;6.75;;;1.83;;
69381;SDS011;56560;50.692;12.844;2022-07-10T14:59:13;6.47;;;1.63;;
69381;SDS011;56560;50.692;12.844;2022-07-10T15:01:39;6.73;;;1.90;;
69381;SDS011;56560;50.692;12.844;2022-07-10T15:04:05;5.00;;;1.73;;
69381;SDS011;56560;50.692;12.844;2022-07-10T15:06:31;6.03;;;1.60;;
69381;SDS011;56560;50.692;12.844;2022-07-10T15:08:57;3.77;;;1.50;;
69381;SDS011;56560;50.692;12.844;2022-07-10T15:11:23;4.70;;;1.70;;
69381;SDS011;56560;50.692;12.844;2022-07-10T15:13:50;8.50;;;2.05;;
69381;SDS011;56560;50.692;12.844;2022-07-10T15:16:18;4.88;;;1.70;;
69381;SDS011;56560;50.692;12.844;2022-07-10T15:18:44;6.07;;;1.80;;
69381;SDS011;56560;50.692;12.844;2022-07-10T15:21:10;5.93;;;1.70;;
69381;SDS011;56560;50.692;12.844;2022-07-10T15:23:36;6.30;;;1.90;;
69381;SDS011;56560;50.692;12.844;2022-07-10T15:26:02;7.45;;;1.88;;
69381;SDS011;56560;50.692;12.844;2022-07-10T15:28:29;5.25;;;1.60;;
69381;SDS011;56560;50.692;12.844;2022-07-10T15:30:55;3.00;;;1.57;;
69381;SDS011;56560;50.692;12.844;2022-07-10T15:33:22;5.53;;;1.80;;
69381;SDS011;56560;50.692;12.844;2022-07-10T15:35:47;6.85;;;2.00;;
69381;SDS011;56560;50.692;12.844;2022-07-10T15:38:13;3.47;;;1.50;;